Kirishima, Japan
Current Conditions -  °F | °C
As of 8:00 AM on Sunday 26 Oct 2014 (Local Time) from RJFK Reporting Station
Broken Clouds Broken Clouds  
Wind Chill: 68°   Ceiling: 14000
Heat Index: 68°   Visibility: 6mi
Dew Point: 59°   Wind: 5mph
Humidity: 73%   Direction: 100°E
Pressure: 30.12"   Gusts: NA
Location:  31.82°N, 130.77°E
Report Text: RJFK 252300Z 10004KT 050V130 9999 FEW030 SCT100 BKN140 20/15 Q1020
Loading
Personal Weather Stations






























Interactive Weather Map
Tropical Storm Tracking
New forecast layout! Learn more

10-Day Weather Forecast

Advertisements
Track Severe Weather on mobile